createdAt,value
2023-05-18T00:07:46.578Z,93214.88
2023-05-18T00:22:48.348Z,93062.94
2023-05-18T00:37:50.121Z,92814.69
2023-05-18T00:52:52.508Z,92774.44
2023-05-18T01:07:56.655Z,93122.22
2023-05-18T01:23:24.005Z,93202.75
2023-05-18T01:38:28.640Z,93178.97
2023-05-18T01:53:39.381Z,93023.34
2023-05-18T02:08:41.174Z,93203.56
2023-05-18T02:23:42.924Z,93122.84
2023-05-18T02:38:44.743Z,93118.09
2023-05-18T02:53:46.474Z,93133.00
2023-05-18T03:08:49.143Z,93231.59
2023-05-18T03:23:51.226Z,93229.41
2023-05-18T03:38:53.026Z,93098.44
2023-05-18T03:53:54.936Z,93084.91
2023-05-18T04:08:56.653Z,93138.06
2023-05-18T04:24:03.013Z,93045.06
2023-05-18T04:39:07.968Z,93153.47
2023-05-18T04:54:09.705Z,93366.50
2023-05-18T05:09:14.220Z,93093.91
2023-05-18T05:24:15.960Z,93237.38
2023-05-18T05:39:17.776Z,93383.84
2023-05-18T05:54:19.607Z,93393.34
2023-05-18T06:09:21.326Z,93421.81
2023-05-18T06:24:23.112Z,93180.78
2023-05-18T06:39:25.019Z,93369.16
2023-05-18T06:54:26.998Z,93359.44
2023-05-18T07:09:28.850Z,93437.63
2023-05-18T07:24:31.084Z,93342.19
2023-05-18T07:39:32.686Z,93499.97
2023-05-18T07:54:34.846Z,93442.84
2023-05-18T08:09:36.582Z,93432.75
2023-05-18T08:24:38.355Z,93436.16
2023-05-18T08:39:40.526Z,93514.34
2023-05-18T08:54:47.136Z,93585.63
2023-05-18T09:09:49.306Z,93614.09
2023-05-18T09:24:51.178Z,93527.31
2023-05-18T09:40:01.086Z,93504.09
2023-05-18T09:55:05.626Z,93627.94
2023-05-18T10:10:09.103Z,93614.16
2023-05-18T10:25:11.742Z,93507.19
2023-05-18T10:40:15.629Z,93650.94
2023-05-18T10:55:18.843Z,93501.91
2023-05-18T11:10:20.651Z,93655.88
2023-05-18T11:25:28.256Z,93691.59
2023-05-18T11:40:47.778Z,93710.34
2023-05-18T11:55:53.112Z,93706.81
2023-05-18T12:10:55.575Z,93604.00
2023-05-18T12:25:58.046Z,93719.53
2023-05-18T12:40:59.765Z,93641.13
2023-05-18T12:56:01.859Z,93547.78
2023-05-18T13:26:13.381Z,93629.09
2023-05-18T13:41:15.432Z,93694.84
2023-05-18T13:56:17.347Z,93687.47
2023-05-18T14:11:19.278Z,93695.09
2023-05-18T14:26:22.348Z,93675.56
2023-05-18T14:41:24.130Z,93747.69
2023-05-18T14:56:26.809Z,93557.50
2023-05-18T15:11:28.520Z,93750.19
2023-05-18T15:26:30.590Z,93431.44
2023-05-18T15:41:35.359Z,93549.84
2023-05-18T15:56:37.262Z,93702.75
2023-05-18T16:11:39.263Z,93738.91
2023-05-18T16:26:40.913Z,93621.66
2023-05-18T16:41:42.703Z,93649.78
2023-05-18T16:56:44.395Z,93788.44
2023-05-18T17:11:47.639Z,93711.78
2023-05-18T17:26:49.526Z,93813.03
2023-05-18T17:41:54.516Z,93692.09
2023-05-18T17:56:56.802Z,93700.25
2023-05-18T18:12:00.605Z,93852.78
2023-05-18T18:27:02.368Z,93674.13
2023-05-18T18:42:04.364Z,93751.09
2023-05-18T18:57:06.428Z,93879.50
2023-05-18T19:12:08.588Z,93775.06
2023-05-18T19:27:10.299Z,93899.94
2023-05-18T19:42:12.064Z,93883.63
2023-05-18T19:57:13.780Z,93532.22
2023-05-18T20:12:15.537Z,93787.38
2023-05-18T20:27:17.601Z,93750.06
2023-05-18T20:42:22.016Z,93905.41
2023-05-18T20:57:23.803Z,93760.22
2023-05-18T21:12:25.642Z,93740.91
2023-05-18T21:27:27.848Z,93635.06
2023-05-18T21:42:29.594Z,93878.50
2023-05-18T21:57:32.599Z,93870.59
2023-05-18T22:12:34.234Z,93962.03
2023-05-18T22:27:39.146Z,93953.47
2023-05-18T22:42:41.076Z,93722.53
2023-05-18T22:57:44.684Z,93726.28
2023-05-18T23:12:48.433Z,93764.31
2023-05-18T23:27:50.190Z,93723.13
2023-05-18T23:42:52.237Z,93752.13
2023-05-18T23:57:56.117Z,93951.41
